Wenn Sie den Mauscursor in der Übersichtskarte über ein Stationssymbol ziehen, so werden die aktuellen Stationsdaten eingeblendet. Dabei handelt es sich um die jeweils aktuell vorliegenden Messwerte einer Station (siehe Datum und Uhrzeitangabe).

Durch Anklicken des entsprechenden Stationssymbols gelangen Sie zu den Gangliniendarstellung der Lufttemperatur, der Luftfeuchte und (sofern vorhanden) auch der Niederschlagshöhe. Jeder Parameter ist für einen Zeitraum für 30 Tage dargestellt. Die Lufttemperaturganglinie wird dabei dem am längsten verfügbaren Vergleichszeitraum gegenüber gestellt. Somit kann man für jeden Zeitpunkt der aktuellen Lufttemperaturganglinie sehen, welchen Schwankungsbereich die Lufttemperatur im Vergleichszeitraum exakt für diesen Kalendertag bzw. Zeitpunkt bisher aufgewiesen hat und somit kann man die aktuelle Lufttemperatur gegenüber den langjährigen Verhältnissen sehr gut einstufen.  

Zudem können Sie die Daten für die letzten 30 Tage downloaden.

Die  Stationssymbole auf der Übersichtskarte werden entsprechend der aktuellen Lufttemperatur bei der jeweiligen Station eingefärbt (siehe dazu Legende neben der Übersichtskarte).

Stationsname Zeit [MEZ] NS [mm/15min] NS [mm/24h] Temp [°C] Luftfeuchte [%]
Andau 20.07.2024 13:00 0,0 0,8 23,8
Apetlon - A79 20.07.2024 13:00 0,0 0,3 22,8 100,0
Aspang 20.07.2024 13:00 0,0 6,6 19,8
Bad Tatzmannsdorf 20.07.2024 13:00 0,0 6,4 21,5
Bernstein 20.07.2024 13:00 0,0 4,6 19,3
Bonisdorf 20.07.2024 13:00 0,0 33,4 20,5 100,0
Bruckneudorf 20.07.2024 13:00 0,0 0,0 24,0
Deutsch Jahrndorf 20.07.2024 13:00 0,0 0,0 24,9 74,0
Deutsch Kaltenbrunn 20.07.2024 13:00 0,0 16,8 21,1 81,2
Deutschkreutz 20.07.2024 13:00 0,0 2,9 22,9 92,0
Donnerskirchen 20.07.2024 13:00 0,0 0,0 23,9 70,0
Drassburg 20.07.2024 13:00 0,0 0,8 22,6 84,0
Dürnbach 20.07.2024 13:00 0,3 25,1 21,8 92,0
Eisenberg 20.07.2024 13:00 0,0 8,4 22,7 82,0
Eisenstadt 20.07.2024 13:00 0,0 0,0 23,5 80,0
Feldbach 20.07.2024 13:00 0,0 25,9 21,3
Fischbach 20.07.2024 13:00 0,0 24,5 18,2
Forchtenstein 20.07.2024 13:00 20,7 91,0
Frankenau 20.07.2024 13:00 0,1 8,6 22,2 100,0
Frauenkirchen 20.07.2024 13:00 0,0 0,8 23,7 87,0
Fürstenfeld 20.07.2024 13:00 0,0 15,9 22,4
Gattendorf 20.07.2024 13:00 0,0 0,0 25,2 70,0
Glashütten 20.07.2024 13:00 21,6 90,0
Glasing 20.07.2024 13:00 0,0 13,8 22,2 85,0
Gleisdorf 20.07.2024 13:00 0,0 10,8 21,2
Halbturn 20.07.2024 13:00 0,0 0,0 24,5 81,0
Heiligenkreuz 20.07.2024 13:00 0,0 14,1 22,6 80,0
Hirschenkogel 20.07.2024 13:00 0,0 14,0 21,2
Hirschenstein 20.07.2024 13:00 0,2 11,5 18,6 100,0
Illmitz - Biologische Station 20.07.2024 13:00 0,0 3,4 22,4 81,0
Karl 20.07.2024 13:00 0,0 2,8 21,5 94,0
Kittsee 20.07.2024 13:00 24,8 59,0
Kleinzicken 20.07.2024 13:00 0,0 12,3 21,6
Kobersdorf 20.07.2024 13:00 0,0 1,2 22,2 99,0
Kukmirn 20.07.2024 13:00 22,6 79,0
Loretto 20.07.2024 13:00 24,5 66,0
Lutzmannsburg 20.07.2024 12:45 21,5 91,0
Lutzmannsburg (GSA) 20.07.2024 13:00 0,0 12,7 21,5
Mattersburg 20.07.2024 13:00 0,0 0,8 22,3
Moenichkirchen 20.07.2024 13:00 0,0 13,6 16,5
Mörbisch 20.07.2024 13:00 22,7 83,0
Nebersdorf 20.07.2024 13:00 0,0 5,2 22,3 93,0
Neumarkt an der Raab 20.07.2024 13:00 0,0 12,6 22,5 94,0
Neusiedl am See 20.07.2024 13:00 0,0 0,0 24,0
Neustift an der Rosalia 20.07.2024 13:00 0,0 4,9 21,0 81,0
Nickelsdorf 20.07.2024 13:00 0,0 0,0 24,7 76,0
Nikitsch 20.07.2024 13:00 0,1 6,7 21,2 100,0
Oberdorf 20.07.2024 13:00 21,8 89,0
Oberpullendorf 20.07.2024 13:00 0,0 6,0 21,8 83,0
Oberwart 20.07.2024 13:00 0,2 8,9 22,0 89,0
Pinkafeld 20.07.2024 13:00 0,0 7,1 21,9 100,0
Podersdorf 20.07.2024 13:00 23,4 66,0
Pottschach 20.07.2024 13:00 0,0 5,4 20,6
Puchberg 20.07.2024 13:00 0,0 8,6 20,5
Redlschlag 20.07.2024 13:00 0,0 3,2 19,0 77,7
Ritzing 20.07.2024 13:00 0,0 2,8 22,2 100,0
Rust 20.07.2024 13:00 0,0 4,1 22,9 92,0
Sieggraben 20.07.2024 13:00 0,0 1,2 21,1 99,0
St. Margarethen - Berg 20.07.2024 13:00 0,0 2,4 22,3 98,0
St. Michael 20.07.2024 13:00 0,0 30,2 23,4 93,0
Stadtschlaining 20.07.2024 13:00 0,1 6,3 21,3 100,0
Trausdorf 20.07.2024 13:00 0,0 0,1 22,6 92,0
Wiener Neustadt 20.07.2024 13:00 0,0 1,5 22,6
Woerterberg 20.07.2024 13:00 0,0 9,3 20,7
Wulkaprodersdorf 20.07.2024 13:00 0,0 0,0 23,5 80,0
Zurndorf - Friedrichshof 20.07.2024 13:00 0,0 0,0 24,2 71,0